Terminal Aerodrome Forecast
Issued by NWS Sioux Falls, SD

Home | Current Version | Previous Version | Text Only | Print | Product List | Glossary On
Versions: 1 2 3 4 5 6 7 8 9 10 11 12 13 14 15 16 17 18 19 20 21 22
785
FTUS43 KFSD 230520
TAFHON
TAF
KHON 230520Z 2306/2406 16017KT P6SM SCT200
     FM231300 16014KT P6SM OVC070
     FM231600 16015KT P6SM OVC025
     FM231800 15012KT P6SM OVC015
     FM232100 10009KT 4SM BR OVC008
     FM240200 06008KT 4SM BR OVC008=

USA.gov is the U.S. government's official web portal to all federal, state and local government web resources and services.